Hovedside
METAR-TAF:

METAR-TAF

Lufthavner :

Klamath Falls Airport (Kingsley Field)

Klamath Falls, Oregon, USA

breddegrad: 42-08-49N, lengdegrad: 121-43-27W, høyde over havet: 1247 m

Gjeldene værobservasjon

Denne rapporten ble laget for 58 minutter siden, klokken 16:53 UTC
Vind 11 kt fra Nord-nordvest
Temperatur 12°C
Luftfuktighet 40%
Trykk 1018 hPa
Sikt: 16.1 km
Skyfri himmel

METAR: KLMT 091653Z 33011KT 10SM CLR 12/M01 A3007 RMK AO2 SLP162 T01221011

Tid: 10:51 (17:51 UTC)

Varsel

Denne rapporten ble laget for 6 timer og 31 minutter siden, klokken 11:20 UTC
Varsel gyldig fra 09. klokken 12 UTC til 10. klokken 12 UTC
Vind 8 kt fra Nord
Sikt: 10 km
Skyfri himmel

TAF: KLMT 091120Z 0912/1012 35008KT P6SM SKC

Værobservasjoner og værvarsel for over 4000 flyplasser (METAR- og TAF-rapporter).

Tilgjengelige stasjoner er representert av de røde og gule prikkene på kartet.

Hold musepekeren over prikken for å se navnet på stasjonen.

Klikk så for å se værobservasjoner og -varsler.

For å forandre kartet kan du klikke på den grønne knappen med svart kryss for å zoome inn, på den grønne knappen med strek for å zoome ut, eller på de grønne pilene for å se tilstøtende kart.


METAR-TAF: